Time;durP1;ratioP1;P1;durP2;ratioP2;P2;SDS_P1;SDS_P2;PMS_P1;PMS_P2;Temp;Humidity;BMP_temperature;BMP_pressure;BME280_temperature;BME280_humidity;BME280_pressure;Samples;Min_cycle;Max_cycle;Signal;HPM_P1;HPM_P2
2022/04/30 00:00:41;;;;;;;10.30;7.60;;;;;;;6.25;87.11;101919.17;106469;1259;69599;-72
2022/04/30 00:03:10;;;;;;;9.60;8.00;;;;;;;6.17;87.26;101919.10;106495;1259;68748;-73
2022/04/30 00:05:39;;;;;;;10.90;8.70;;;;;;;6.14;87.44;101919.73;106400;1261;73973;-72
2022/04/30 00:08:08;;;;;;;13.00;9.20;;;;;;;6.22;87.75;101921.35;106251;1259;60599;-71
2022/04/30 00:10:38;;;;;;;15.90;8.90;;;;;;;6.27;87.59;101922.75;106348;1259;60345;-72
2022/04/30 00:13:12;;;;;;;15.90;8.30;;;;;;;6.23;87.35;101922.20;106495;1260;72116;-72
2022/04/30 00:15:41;;;;;;;18.50;9.50;;;;;;;6.19;87.07;101923.38;106666;1260;70440;-72
2022/04/30 00:18:11;;;;;;;15.70;9.40;;;;;;;6.24;87.08;101921.30;106280;1259;72391;-70
2022/04/30 00:20:45;;;;;;;14.90;10.10;;;;;;;6.25;87.06;101921.61;106564;1258;73791;-71
2022/04/30 00:23:21;;;;;;;19.80;11.60;;;;;;;6.22;86.73;101922.05;106541;1260;61939;-74
2022/04/30 00:25:53;;;;;;;17.60;12.30;;;;;;;6.20;86.38;101922.13;106583;1260;60567;-74
2022/04/30 00:28:25;;;;;;;16.20;11.90;;;;;;;6.17;86.45;101920.67;106596;1260;72929;-73
2022/04/30 00:30:54;;;;;;;15.90;9.60;;;;;;;6.09;85.78;101920.44;106813;1259;70417;-71
2022/04/30 00:33:23;;;;;;;16.90;9.60;;;;;;;5.99;86.29;101920.78;106862;1260;68019;-74
2022/04/30 00:35:52;;;;;;;13.60;9.30;;;;;;;5.95;87.15;101917.95;106632;1259;71317;-74
2022/04/30 00:38:21;;;;;;;12.20;8.50;;;;;;;5.96;87.59;101912.23;106571;1260;61966;-75
2022/04/30 00:40:49;;;;;;;11.20;9.10;;;;;;;5.93;86.99;101911.96;106482;1259;60843;-75
2022/04/30 00:43:18;;;;;;;10.80;8.60;;;;;;;5.86;86.56;101912.69;106441;1259;72308;-73
2022/04/30 00:45:48;;;;;;;12.10;8.50;;;;;;;5.79;86.69;101915.19;106392;1260;70471;-70
2022/04/30 00:48:17;;;;;;;13.70;8.60;;;;;;;5.73;86.83;101910.91;106359;1259;68903;-71
2022/04/30 00:50:48;;;;;;;12.10;9.10;;;;;;;5.66;87.32;101910.23;106161;1261;73312;-70
2022/04/30 00:53:19;;;;;;;12.00;8.80;;;;;;;5.65;87.43;101909.27;106281;1259;60460;-69
2022/04/30 00:55:49;;;;;;;13.20;8.90;;;;;;;5.64;87.45;101912.56;106357;1260;58962;-73
2022/04/30 00:58:21;;;;;;;14.60;8.80;;;;;;;5.54;87.53;101912.53;106291;1261;73023;-72
2022/04/30 01:00:51;;;;;;;12.50;8.60;;;;;;;5.58;88.03;101918.09;106412;1259;72302;-73
2022/04/30 01:03:31;;;;;;;14.20;8.90;;;;;;;5.59;87.15;101914.11;106154;1260;67891;-71
2022/04/30 01:06:08;;;;;;;11.00;8.60;;;;;;;5.57;87.03;101911.05;106099;1261;71514;-74
2022/04/30 01:08:38;;;;;;;12.30;8.80;;;;;;;5.59;86.90;101910.30;106250;1262;59876;-71
2022/04/30 01:11:07;;;;;;;14.80;8.70;;;;;;;5.63;86.83;101909.01;106234;1259;59739;-71
2022/04/30 01:13:37;;;;;;;13.00;8.70;;;;;;;5.61;87.00;101907.31;106171;1260;71985;-71
2022/04/30 01:16:07;;;;;;;14.80;10.80;;;;;;;5.62;87.31;101903.83;106127;1261;72163;-72
2022/04/30 01:18:37;;;;;;;15.00;11.00;;;;;;;5.63;87.38;101906.05;106252;1261;69151;-73
2022/04/30 01:21:13;;;;;;;14.10;9.70;;;;;;;5.63;87.63;101905.34;106278;1261;72055;-75
2022/04/30 01:23:43;;;;;;;14.20;11.20;;;;;;;5.60;87.42;101907.15;105917;1259;700223;-74
2022/04/30 01:26:17;;;;;;;15.00;9.60;;;;;;;5.61;87.98;101904.20;106237;1261;60510;-74
2022/04/30 01:28:46;;;;;;;13.30;9.20;;;;;;;5.60;87.34;101900.10;106318;1259;73591;-74
2022/04/30 01:37:37;;;;;;;11.30;8.60;;;;;;;5.35;86.59;101889.64;105653;1266;72561;-72
2022/04/30 01:40:09;;;;;;;13.80;9.30;;;;;;;5.21;86.93;101888.35;106030;1261;59189;-72
2022/04/30 01:42:47;;;;;;;11.10;9.70;;;;;;;5.21;86.95;101890.95;106317;1260;59016;-73
2022/04/30 01:45:18;;;;;;;17.70;11.40;;;;;;;5.13;86.98;101890.18;106162;1260;72707;-72
2022/04/30 01:47:48;;;;;;;16.60;11.20;;;;;;;5.03;86.30;101887.89;106278;1259;70018;-71
2022/04/30 01:50:16;;;;;;;13.60;9.10;;;;;;;4.93;86.99;101886.98;106220;1261;69890;-72
2022/04/30 01:52:45;;;;;;;13.70;10.20;;;;;;;4.86;87.76;101889.61;106314;1259;73091;-72
2022/04/30 01:55:14;;;;;;;14.20;10.30;;;;;;;4.79;87.14;101882.58;106342;1261;61494;-71
2022/04/30 01:57:43;;;;;;;14.60;10.30;;;;;;;4.71;86.83;101881.09;106333;1260;59159;-71
2022/04/30 02:00:14;;;;;;;16.30;10.70;;;;;;;4.62;86.85;101883.94;106414;1260;72118;-71
2022/04/30 02:02:48;;;;;;;15.40;10.80;;;;;;;4.52;88.04;101882.83;106228;1262;71363;-71
2022/04/30 02:05:20;;;;;;;15.10;9.70;;;;;;;4.51;89.25;101882.00;106377;1261;68791;-72
2022/04/30 02:07:55;;;;;;;14.90;10.80;;;;;;;4.47;90.23;101880.39;106412;1261;73125;-72
2022/04/30 02:10:24;;;;;;;13.90;10.40;;;;;;;4.45;90.39;101880.80;106298;1260;61279;-72
2022/04/30 02:12:54;;;;;;;14.40;10.20;;;;;;;4.44;89.56;101878.60;106597;1259;58986;-72
2022/04/30 02:15:25;;;;;;;17.30;11.40;;;;;;;4.42;88.92;101881.03;106606;1261;73752;-73
2022/04/30 02:17:55;;;;;;;17.00;10.90;;;;;;;4.43;90.11;101874.64;106399;1261;72212;-73
2022/04/30 02:20:26;;;;;;;15.20;11.10;;;;;;;4.46;91.51;101876.77;106140;1261;69890;-73
2022/04/30 02:23:01;;;;;;;17.50;11.80;;;;;;;4.53;91.47;101872.80;106370;1259;71226;-74
2022/04/30 02:25:30;;;;;;;15.10;10.30;;;;;;;4.65;91.02;101874.00;106419;1259;62369;-72
2022/04/30 02:28:04;;;;;;;14.10;10.70;;;;;;;4.76;89.91;101874.36;106243;1260;61726;-71
2022/04/30 02:30:37;;;;;;;15.80;10.70;;;;;;;4.78;89.38;101873.62;106392;1260;73360;-71
2022/04/30 02:33:10;;;;;;;14.60;11.00;;;;;;;4.77;89.50;101872.29;106251;1260;71918;-73
2022/04/30 02:35:44;;;;;;;13.90;10.00;;;;;;;4.78;89.60;101873.27;106342;1260;67848;-73
2022/04/30 02:38:14;;;;;;;15.40;10.30;;;;;;;4.91;90.04;101868.40;106411;1260;74525;-75
2022/04/30 02:40:43;;;;;;;13.20;10.30;;;;;;;5.06;89.42;101869.66;106236;1261;61004;-73
2022/04/30 02:43:15;;;;;;;16.50;10.80;;;;;;;5.17;89.12;101871.08;106422;1261;60906;-73
2022/04/30 02:45:44;;;;;;;16.00;11.80;;;;;;;5.24;89.67;101869.60;106341;1261;71817;-74
2022/04/30 02:48:14;;;;;;;14.50;10.70;;;;;;;5.28;89.91;101868.29;106307;1261;70726;-73
2022/04/30 02:50:43;;;;;;;17.30;11.50;;;;;;;5.33;89.78;101867.08;106232;1261;70581;-73
2022/04/30 02:53:12;;;;;;;19.60;12.20;;;;;;;5.41;90.19;101865.98;106269;1260;74284;-72
2022/04/30 02:55:40;;;;;;;15.80;11.50;;;;;;;5.44;90.44;101862.58;106274;1261;61326;-72
2022/04/30 03:00:57;;;;;;;15.80;11.30;;;;;;;5.67;89.70;101861.64;106264;1261;73264;-71
2022/04/30 03:03:48;;;;;;;15.90;11.30;;;;;;;5.77;88.91;101868.73;106679;1259;70461;-73
2022/04/30 03:06:17;;;;;;;20.10;11.50;;;;;;;5.81;88.56;101873.44;106749;1259;69980;-74
2022/04/30 03:08:49;;;;;;;22.10;12.20;;;;;;;5.76;88.02;101871.37;106651;1259;71919;-73
2022/04/30 03:11:19;;;;;;;18.40;11.40;;;;;;;5.66;87.57;101870.33;106715;1259;61396;-74
2022/04/30 03:13:48;;;;;;;18.20;10.20;;;;;;;5.57;87.73;101871.13;106677;1259;58959;-75
2022/04/30 03:21:53;;;;;;;25.90;11.40;;;;;;;5.50;90.90;101869.65;106495;1260;68839;-72
2022/04/30 03:24:22;;;;;;;40.00;12.50;;;;;;;5.48;90.31;101870.22;106626;1259;73908;-73
2022/04/30 03:26:50;;;;;;;16.50;10.60;;;;;;;5.38;90.75;101874.67;106666;1258;61820;-73
2022/04/30 03:29:20;;;;;;;22.30;11.30;;;;;;;5.35;89.96;101877.20;106626;1259;60176;-71
2022/04/30 03:31:49;;;;;;;21.00;11.40;;;;;;;5.27;91.26;101872.63;106621;1259;71942;-73
2022/04/30 03:34:18;;;;;;;14.90;9.80;;;;;;;5.30;91.08;101875.63;106505;1259;69578;-73
2022/04/30 03:36:47;;;;;;;13.30;10.00;;;;;;;5.35;90.67;101877.73;106388;1261;69803;-73
2022/04/30 03:39:16;;;;;;;15.40;10.40;;;;;;;5.41;91.12;101882.89;106688;1259;72402;-74
2022/04/30 03:41:44;;;;;;;19.30;10.60;;;;;;;5.49;91.30;101880.39;106765;1261;58697;-73
2022/04/30 03:44:13;;;;;;;21.80;11.30;;;;;;;5.59;91.27;101881.63;106705;1259;59827;-73
2022/04/30 03:46:43;;;;;;;18.10;10.50;;;;;;;5.71;91.05;101881.40;106499;1261;72832;-76
2022/04/30 03:49:13;;;;;;;18.80;10.30;;;;;;;5.80;90.85;101878.51;106393;1259;73104;-75
2022/04/30 03:51:42;;;;;;;15.30;10.20;;;;;;;5.91;90.96;101880.91;106384;1259;70559;-76
2022/04/30 03:54:10;;;;;;;20.90;11.00;;;;;;;6.03;90.47;101884.48;106214;1261;72877;-74
2022/04/30 03:56:40;;;;;;;24.80;10.90;;;;;;;6.12;90.10;101883.84;106301;1259;62114;-72
2022/04/30 03:59:08;;;;;;;18.80;9.40;;;;;;;6.19;89.75;101888.80;106144;1259;61825;-74
2022/04/30 04:01:38;;;;;;;20.60;10.60;;;;;;;6.23;88.97;101890.89;106245;1261;72914;-69
2022/04/30 04:04:08;;;;;;;13.10;8.60;;;;;;;6.20;88.88;101889.77;106346;1259;70843;-72
2022/04/30 04:06:37;;;;;;;17.50;11.60;;;;;;;6.21;88.58;101893.54;106533;1259;70680;-72
2022/04/30 04:09:06;;;;;;;17.50;8.90;;;;;;;6.22;89.69;101895.92;106496;1260;74808;-74
2022/04/30 04:11:34;;;;;;;6.70;6.00;;;;;;;6.26;88.77;101894.90;106414;1259;61778;-77
2022/04/30 04:19:37;;;;;;;7.90;6.30;;;;;;;5.86;88.13;101891.80;106541;1259;73292;-71
2022/04/30 04:22:07;;;;;;;10.20;6.20;;;;;;;5.69;88.47;101898.73;106337;1260;69422;-73
2022/04/30 04:27:24;;;;;;;10.40;7.10;;;;;;;5.52;89.17;101896.17;106500;1259;61933;-72
2022/04/30 04:29:52;;;;;;;10.10;7.80;;;;;;;5.49;89.68;101899.73;106315;1261;59309;-74
2022/04/30 04:32:21;;;;;;;13.10;7.20;;;;;;;5.52;89.58;101902.94;106402;1259;71776;-72
2022/04/30 04:34:50;;;;;;;15.30;8.80;;;;;;;5.55;89.66;101900.41;106497;1259;71366;-73
2022/04/30 04:37:20;;;;;;;17.10;8.40;;;;;;;5.55;90.12;101898.33;106439;1261;71055;-74
2022/04/30 04:39:49;;;;;;;10.30;7.50;;;;;;;5.68;89.77;101895.86;106354;1262;74354;-74
2022/04/30 04:42:19;;;;;;;17.80;7.70;;;;;;;5.79;89.82;101900.15;106294;1261;63823;-75
2022/04/30 04:44:48;;;;;;;10.60;7.00;;;;;;;5.83;89.70;101894.47;106407;1260;59594;-74
2022/04/30 04:47:17;;;;;;;12.60;7.50;;;;;;;5.93;89.45;101893.80;106299;1260;72217;-73
2022/04/30 04:49:47;;;;;;;13.10;9.40;;;;;;;6.02;89.60;101895.25;106378;1259;70877;-74
2022/04/30 04:52:16;;;;;;;12.80;8.10;;;;;;;6.11;90.18;101892.52;106361;1261;68874;-73
2022/04/30 04:54:45;;;;;;;11.50;8.00;;;;;;;6.28;89.51;101890.86;106252;1262;73972;-73
2022/04/30 04:57:15;;;;;;;19.00;9.00;;;;;;;6.41;89.29;101891.09;106239;1261;62617;-74
2022/04/30 04:59:44;;;;;;;15.10;9.10;;;;;;;6.37;90.12;101890.20;106361;1262;60526;-73
2022/04/30 05:02:13;;;;;;;13.00;9.50;;;;;;;6.49;90.38;101889.93;106291;1260;71156;-74
2022/04/30 05:04:43;;;;;;;16.40;9.80;;;;;;;6.59;90.83;101890.80;106290;1261;71988;-73
2022/04/30 05:07:12;;;;;;;13.60;9.10;;;;;;;6.71;90.17;101888.95;106355;1261;68687;-73
2022/04/30 05:09:41;;;;;;;17.20;9.30;;;;;;;6.88;89.44;101894.53;106198;1262;71317;-73
2022/04/30 05:12:11;;;;;;;16.60;10.40;;;;;;;6.74;89.37;101897.32;106197;1262;61785;-73
2022/04/30 05:14:40;;;;;;;16.20;10.10;;;;;;;6.68;90.29;101895.48;106252;1261;60539;-74
2022/04/30 05:17:09;;;;;;;12.90;10.00;;;;;;;6.94;90.03;101899.17;106182;1261;71625;-72
2022/04/30 05:19:38;;;;;;;17.80;8.90;;;;;;;7.19;89.40;101897.69;106270;1260;69645;-75
2022/04/30 05:22:07;;;;;;;11.60;8.70;;;;;;;7.43;88.68;101900.20;106374;1259;68408;-75
2022/04/30 05:24:35;;;;;;;13.00;8.70;;;;;;;7.57;87.43;101902.05;106191;1259;74456;-74
2022/04/30 05:27:04;;;;;;;9.90;8.50;;;;;;;7.59;86.95;101900.91;106281;1260;61049;-75
2022/04/30 05:29:33;;;;;;;12.80;10.10;;;;;;;7.55;87.30;101902.84;106335;1261;59750;-76
2022/04/30 05:32:02;;;;;;;11.40;9.00;;;;;;;7.55;88.11;101905.40;106341;1261;73672;-74
2022/04/30 05:34:31;;;;;;;36.50;19.20;;;;;;;7.63;86.99;101905.42;106274;1262;70309;-77
2022/04/30 05:37:00;;;;;;;38.40;21.80;;;;;;;7.81;87.08;101905.39;106411;1259;67956;-77
2022/04/30 05:39:29;;;;;;;41.80;25.10;;;;;;;7.97;86.68;101904.55;106771;1259;72032;-77
2022/04/30 05:41:58;;;;;;;67.60;42.70;;;;;;;8.06;86.25;101906.91;106909;1259;62237;-75
2022/04/30 05:44:26;;;;;;;36.50;26.00;;;;;;;8.35;85.67;101908.64;106832;1259;61652;-73
2022/04/30 05:46:55;;;;;;;20.70;15.10;;;;;;;8.23;85.18;101902.89;106531;1261;71589;-72
2022/04/30 05:49:24;;;;;;;13.80;12.40;;;;;;;8.32;84.94;101915.70;106508;1261;69387;-74
2022/04/30 05:51:53;;;;;;;14.00;10.70;;;;;;;8.35;85.47;101914.04;106475;1260;68005;-74
2022/04/30 05:54:22;;;;;;;14.70;10.20;;;;;;;8.47;85.39;101913.32;106476;1260;74335;-74
2022/04/30 05:56:50;;;;;;;10.90;9.80;;;;;;;8.61;85.01;101910.81;106812;1260;63591;-75
2022/04/30 05:59:19;;;;;;;12.20;9.90;;;;;;;8.70;84.31;101913.14;106501;1259;59636;-74
2022/04/30 06:01:48;;;;;;;10.50;9.40;;;;;;;8.82;84.34;101915.39;106554;1260;72864;-73
2022/04/30 06:04:17;;;;;;;11.50;10.30;;;;;;;9.00;83.73;101914.91;106510;1259;71031;-70
2022/04/30 06:06:45;;;;;;;13.90;11.00;;;;;;;9.05;83.20;101916.23;106417;1261;70979;-77
2022/04/30 06:09:14;;;;;;;12.90;10.50;;;;;;;9.09;83.34;101913.77;106490;1260;72359;-71
2022/04/30 06:11:43;;;;;;;18.30;12.40;;;;;;;9.19;83.48;101911.58;106593;1261;61389;-72
2022/04/30 06:14:12;;;;;;;14.50;11.00;;;;;;;9.31;83.13;101909.95;106583;1260;60715;-74
2022/04/30 06:16:43;;;;;;;13.10;10.20;;;;;;;9.45;82.64;101910.14;106627;1260;75320;-73
2022/04/30 06:19:12;;;;;;;10.40;8.50;;;;;;;9.54;82.98;101910.58;106785;1260;71891;-77
2022/04/30 06:21:43;;;;;;;12.90;10.20;;;;;;;9.72;82.58;101907.45;106409;1260;68736;-74
2022/04/30 06:24:12;;;;;;;12.10;9.50;;;;;;;9.86;81.85;101909.02;106343;1261;74077;-73
2022/04/30 06:26:40;;;;;;;20.70;15.40;;;;;;;10.02;81.24;101904.36;106063;1262;59751;-73
2022/04/30 06:29:10;;;;;;;15.70;11.80;;;;;;;10.12;81.44;101901.77;106243;1261;57988;-74
2022/04/30 06:31:42;;;;;;;11.10;8.60;;;;;;;10.29;81.11;101906.29;106444;1260;71158;-79
2022/04/30 06:34:11;;;;;;;16.80;11.20;;;;;;;10.46;80.44;101902.65;106365;1260;72658;-76
2022/04/30 06:36:40;;;;;;;13.10;10.00;;;;;;;10.58;80.70;101903.39;106327;1260;71687;-75
2022/04/30 06:39:09;;;;;;;14.20;10.50;;;;;;;10.82;79.66;101902.59;106336;1261;72007;-76
2022/04/30 06:41:38;;;;;;;19.00;11.40;;;;;;;10.91;79.47;101903.33;106204;1259;63007;-75
2022/04/30 06:44:06;;;;;;;18.00;11.10;;;;;;;11.08;79.33;101903.08;106184;1261;60907;-76
2022/04/30 06:46:35;;;;;;;13.60;9.20;;;;;;;11.21;79.13;101905.86;106430;1261;72337;-75
2022/04/30 06:49:04;;;;;;;12.30;8.40;;;;;;;11.34;78.63;101902.66;106298;1260;70396;-76
2022/04/30 06:51:34;;;;;;;10.10;7.80;;;;;;;11.50;78.21;101899.15;106435;1261;68198;-75
2022/04/30 06:57:08;;;;;;;14.00;8.70;;;;;;;11.81;76.96;101900.00;107725;1260;63658;-79
2022/04/30 06:59:45;;;;;;;15.10;10.10;;;;;;;11.99;76.97;101892.98;107191;1260;62820;-76
2022/04/30 07:02:23;;;;;;;10.90;8.50;;;;;;;12.12;76.42;101897.98;106837;1260;72772;-75
2022/04/30 07:04:52;;;;;;;17.40;11.00;;;;;;;12.39;75.79;101896.71;106428;1260;69616;-74
2022/04/30 07:07:43;;;;;;;13.80;8.40;;;;;;;12.56;75.35;101892.48;107643;1251;70696;-74
2022/04/30 07:10:26;;;;;;;12.40;9.70;;;;;;;12.73;74.01;101896.52;106814;1259;73674;-77
2022/04/30 07:12:55;;;;;;;11.20;7.30;;;;;;;12.86;73.43;101894.81;107030;1259;63555;-75
2022/04/30 07:15:23;;;;;;;11.00;7.00;;;;;;;13.02;73.09;101897.31;106603;1259;60904;-76
2022/04/30 07:17:52;;;;;;;15.90;7.10;;;;;;;13.14;72.45;101888.30;106605;1259;73281;-75
2022/04/30 07:20:21;;;;;;;10.80;7.70;;;;;;;13.24;72.68;101884.90;106280;1262;70388;-77
2022/04/30 07:22:50;;;;;;;8.10;6.80;;;;;;;13.42;72.75;101884.04;106588;1259;69206;-78
2022/04/30 07:25:22;;;;;;;11.00;7.50;;;;;;;13.69;72.32;101884.23;106519;1259;73634;-76
2022/04/30 07:27:50;;;;;;;12.10;8.20;;;;;;;13.98;69.80;101877.66;106428;1260;61118;-76
2022/04/30 07:30:20;;;;;;;8.70;6.10;;;;;;;14.12;69.03;101873.40;106431;1259;59030;-75
2022/04/30 07:32:49;;;;;;;9.20;6.80;;;;;;;14.24;67.63;101875.36;106385;1260;74382;-76
2022/04/30 07:35:18;;;;;;;10.90;6.60;;;;;;;14.28;67.47;101874.92;106470;1259;71646;-75
2022/04/30 07:37:47;;;;;;;10.20;6.90;;;;;;;14.22;67.69;101870.39;106457;1259;68726;-75
2022/04/30 07:40:17;;;;;;;8.60;5.50;;;;;;;14.42;66.54;101859.05;106501;1260;76494;-75
2022/04/30 07:42:48;;;;;;;6.10;4.70;;;;;;;14.62;66.08;101872.42;106452;1259;61999;-77
2022/04/30 07:45:16;;;;;;;9.10;5.80;;;;;;;14.63;65.10;101870.41;106854;1259;59543;-76
2022/04/30 07:47:47;;;;;;;8.40;6.00;;;;;;;14.61;66.70;101866.16;106562;1257;72513;-75
2022/04/30 07:50:17;;;;;;;8.60;6.00;;;;;;;14.71;65.88;101869.09;106679;1259;71879;-77
2022/04/30 07:52:46;;;;;;;6.70;4.10;;;;;;;14.68;62.99;101870.23;106550;1259;71343;-78
2022/04/30 07:55:15;;;;;;;4.40;2.80;;;;;;;14.71;63.27;101871.35;106593;1259;73112;-77
2022/04/30 07:57:44;;;;;;;5.10;2.90;;;;;;;14.79;62.97;101869.39;106574;1259;60209;-77
2022/04/30 08:00:13;;;;;;;3.60;2.30;;;;;;;14.79;61.78;101863.42;106402;1259;60630;-76
2022/04/30 08:02:42;;;;;;;4.30;2.60;;;;;;;14.80;59.91;101866.73;106372;1259;75341;-76
2022/04/30 08:05:11;;;;;;;4.20;2.90;;;;;;;14.97;59.88;101864.25;106578;1259;71027;-76
2022/04/30 08:07:40;;;;;;;4.70;2.60;;;;;;;15.18;57.52;101861.00;106461;1260;67180;-76
2022/04/30 08:10:09;;;;;;;2.80;2.30;;;;;;;15.26;57.61;101859.47;106587;1259;72768;-77
2022/04/30 08:12:38;;;;;;;4.50;2.10;;;;;;;15.38;57.92;101857.23;106454;1259;59634;-76
2022/04/30 08:15:07;;;;;;;5.00;2.70;;;;;;;15.46;53.84;101857.50;106679;1259;60948;-76
2022/04/30 08:17:38;;;;;;;3.30;2.20;;;;;;;15.58;52.33;101855.52;106457;1259;73531;-76
2022/04/30 08:20:10;;;;;;;2.70;2.00;;;;;;;15.54;51.23;101854.98;106370;1259;73067;-74
2022/04/30 08:22:39;;;;;;;3.70;2.40;;;;;;;15.61;51.64;101854.61;106363;1260;69187;-75
2022/04/30 08:25:09;;;;;;;3.50;2.30;;;;;;;15.52;51.46;101850.04;106412;1259;73237;-77
2022/04/30 08:27:38;;;;;;;5.10;2.40;;;;;;;15.68;50.90;101848.68;106656;1259;59620;-76
2022/04/30 08:30:08;;;;;;;7.00;2.70;;;;;;;15.93;53.15;101849.89;106545;1259;60738;-76
2022/04/30 08:32:38;;;;;;;5.70;2.50;;;;;;;16.12;49.63;101848.04;106295;1259;74443;-74
2022/04/30 08:35:07;;;;;;;2.90;2.20;;;;;;;16.33;50.26;101848.73;106491;1259;72853;-75
2022/04/30 08:37:56;;;;;;;3.70;2.60;;;;;;;16.55;50.22;101845.87;106497;1259;71354;-75
2022/04/30 08:40:26;;;;;;;4.40;2.60;;;;;;;16.66;49.25;101835.70;106549;1259;72538;-74
2022/04/30 08:43:04;;;;;;;3.60;2.10;;;;;;;16.85;48.77;101837.52;106321;1259;61483;-78
2022/04/30 08:45:37;;;;;;;3.90;2.40;;;;;;;16.82;49.28;101835.10;107081;1259;61739;-78
2022/04/30 08:48:11;;;;;;;5.60;2.60;;;;;;;16.89;48.70;101838.63;107316;1258;72282;-78
2022/04/30 08:50:43;;;;;;;3.70;2.30;;;;;;;16.88;48.13;101831.69;106917;1259;69586;-75
2022/04/30 08:53:14;;;;;;;4.30;2.10;;;;;;;16.90;47.71;101829.55;106629;1258;70543;-74
2022/04/30 08:55:42;;;;;;;3.80;2.30;;;;;;;17.12;48.25;101828.79;106628;1259;74109;-75
2022/04/30 08:58:11;;;;;;;3.60;2.60;;;;;;;17.07;47.54;101828.58;106495;1259;59807;-75
2022/04/30 09:00:44;;;;;;;5.40;2.40;;;;;;;17.04;48.57;101818.95;106511;1259;61160;-74
2022/04/30 09:03:19;;;;;;;3.80;2.20;;;;;;;17.13;47.86;101815.02;106527;1259;73127;-75
2022/04/30 09:05:48;;;;;;;5.00;2.60;;;;;;;17.26;46.99;101821.67;106505;1259;70390;-73
2022/04/30 09:08:17;;;;;;;5.20;2.60;;;;;;;17.39;46.98;101825.49;106578;1258;70648;-73
2022/04/30 09:10:48;;;;;;;3.90;2.60;;;;;;;17.57;46.18;101816.98;106351;1259;74536;-75
2022/04/30 09:13:18;;;;;;;5.30;2.90;;;;;;;17.76;45.90;101812.77;106671;1259;61918;-75
2022/04/30 09:15:53;;;;;;;4.70;2.10;;;;;;;17.49;44.71;101810.91;106504;1258;61256;-75
2022/04/30 09:18:22;;;;;;;2.90;2.30;;;;;;;17.69;44.50;101804.34;106525;1259;74835;-77
2022/04/30 09:20:54;;;;;;;6.60;2.50;;;;;;;17.81;44.34;101804.40;106426;1259;70621;-77
2022/04/30 09:23:34;;;;;;;5.50;2.10;;;;;;;17.78;43.96;101806.73;106651;1259;60381;-76
2022/04/30 09:26:04;;;;;;;4.60;2.10;;;;;;;17.65;43.28;101803.92;106388;1260;63220;-76
2022/04/30 09:28:36;;;;;;;5.70;2.80;;;;;;;17.49;43.65;101803.17;106456;1259;59633;-77
2022/04/30 09:31:17;;;;;;;5.20;3.10;;;;;;;17.52;44.08;101799.64;106695;1259;60705;-76
2022/04/30 09:33:48;;;;;;;24.10;12.00;;;;;;;17.78;42.79;101788.42;106591;1258;72993;-76
2022/04/30 09:39:14;;;;;;;9.40;2.70;;;;;;;18.40;41.41;101787.35;106591;1259;60120;-74
2022/04/30 09:41:43;;;;;;;4.70;2.40;;;;;;;18.07;42.18;101784.64;106434;1259;74753;-73
2022/04/30 09:44:14;;;;;;;3.50;2.20;;;;;;;17.84;41.84;101786.88;106584;1258;59562;-74
2022/04/30 09:46:46;;;;;;;12.00;3.40;;;;;;;17.91;41.97;101782.24;106506;1259;60406;-76
2022/04/30 09:54:51;;;;;;;3.60;2.90;;;;;;;18.04;42.56;101776.17;106570;1257;59231;-76
2022/04/30 09:57:24;;;;;;;5.40;3.20;;;;;;;18.24;42.51;101771.39;106523;1259;72131;-77
2022/04/30 09:59:57;;;;;;;5.40;2.50;;;;;;;18.65;42.44;101769.64;106508;1259;60074;-76
2022/04/30 10:02:28;;;;;;;5.20;2.70;;;;;;;18.80;41.31;101769.59;106568;1259;57902;-75
2022/04/30 10:05:01;;;;;;;5.20;2.40;;;;;;;19.03;40.16;101766.20;106428;1260;63910;-79
2022/04/30 10:07:33;;;;;;;;;;;;;;;19.23;39.20;101761.39;106536;1261;61119;-77
2022/04/30 10:10:21;;;;;;;3.70;2.50;;;;;;;19.32;38.46;101757.91;106681;1260;70632;-75
2022/04/30 10:13:25;;;;;;;4.90;2.70;;;;;;;19.48;37.08;101752.01;106741;1259;74512;-76
2022/04/30 10:15:57;;;;;;;3.90;2.40;;;;;;;19.68;37.17;101753.27;106390;1260;60867;-75
2022/04/30 10:18:41;;;;;;;3.10;2.40;;;;;;;19.83;37.03;101744.78;106636;1260;61818;-73
2022/04/30 10:21:18;;;;;;;3.40;2.30;;;;;;;20.30;36.56;101745.63;106526;1260;62949;-75
2022/04/30 10:23:47;;;;;;;5.80;2.40;;;;;;;20.78;35.94;101739.32;106605;1259;72359;-79
2022/04/30 10:26:15;;;;;;;3.50;2.40;;;;;;;20.52;35.58;101739.75;106502;1259;70882;-75
2022/04/30 10:28:44;;;;;;;3.70;2.40;;;;;;;20.48;36.11;101736.44;106539;1259;62886;-77
2022/04/30 10:31:13;;;;;;;3.80;2.30;;;;;;;20.62;37.10;101735.98;106656;1260;59577;-71
2022/04/30 10:33:50;;;;;;;4.20;2.40;;;;;;;20.48;35.68;101738.00;106362;1259;61840;-68
2022/04/30 10:36:22;;;;;;;4.10;2.30;;;;;;;20.11;37.02;101736.88;106342;1259;74041;-72
2022/04/30 10:38:59;;;;;;;4.60;2.60;;;;;;;19.97;36.23;101731.78;106480;1259;62117;-72
2022/04/30 10:41:28;;;;;;;7.50;3.10;;;;;;;19.90;35.20;101728.45;106449;1259;60091;-70
2022/04/30 10:44:03;;;;;;;4.20;2.60;;;;;;;19.72;35.87;101728.34;106352;1259;63501;-71
2022/04/30 10:46:39;;;;;;;4.00;2.60;;;;;;;19.39;35.90;101727.46;106500;1259;59105;-72
2022/04/30 10:49:08;;;;;;;4.30;2.30;;;;;;;19.43;36.83;101726.29;106473;1259;60593;-69
2022/04/30 10:51:41;;;;;;;2.90;2.20;;;;;;;19.56;36.76;101725.61;106442;1260;74841;-70
2022/04/30 10:54:19;;;;;;;3.90;2.30;;;;;;;19.73;36.88;101727.74;106397;1260;61507;-70
2022/04/30 10:57:04;;;;;;;5.10;2.50;;;;;;;20.17;36.98;101726.90;106202;1261;59410;-71
2022/04/30 10:59:32;;;;;;;6.30;2.20;;;;;;;20.60;36.15;101724.80;106336;1260;72843;-67
2022/04/30 11:02:02;;;;;;;3.70;2.40;;;;;;;20.98;35.41;101714.98;106408;1259;59641;-70
2022/04/30 11:04:31;;;;;;;5.50;2.30;;;;;;;21.34;34.08;101720.58;106429;1259;61243;-70
2022/04/30 11:07:02;;;;;;;5.80;3.00;;;;;;;21.68;33.39;101714.59;106626;1259;64511;-68
2022/04/30 11:09:32;;;;;;;4.40;2.90;;;;;;;21.36;33.10;101722.39;106202;1260;60954;-67
2022/04/30 11:12:01;;;;;;;3.30;2.00;;;;;;;21.44;32.95;101714.88;106403;1259;59161;-68
2022/04/30 11:14:31;;;;;;;5.30;2.30;;;;;;;21.42;33.48;101715.09;106401;1259;74126;-74
2022/04/30 11:16:59;;;;;;;3.00;2.10;;;;;;;21.27;32.21;101713.63;106769;1259;61202;-72
2022/04/30 11:19:28;;;;;;;3.20;2.20;;;;;;;21.00;31.85;101711.29;106626;1259;59816;-68
2022/04/30 11:21:58;;;;;;;3.00;2.10;;;;;;;20.25;32.13;101708.81;106437;1260;63807;-70
2022/04/30 11:24:29;;;;;;;3.40;2.30;;;;;;;19.96;33.27;101711.75;106362;1260;60928;-69
2022/04/30 11:27:04;;;;;;;3.90;2.80;;;;;;;20.10;34.72;101714.30;106351;1260;60073;-71
2022/04/30 11:29:36;;;;;;;3.50;2.60;;;;;;;19.70;37.20;101714.73;106246;1259;62621;-69
2022/04/30 11:32:06;;;;;;;7.10;2.60;;;;;;;18.88;40.65;101722.73;106241;1260;59716;-70
2022/04/30 11:34:39;;;;;;;4.00;2.80;;;;;;;18.40;42.59;101734.84;106387;1259;59663;-68
2022/04/30 11:37:09;;;;;;;9.00;2.80;;;;;;;17.65;44.55;101742.09;106310;1259;73707;-68
2022/04/30 11:39:44;;;;;;;5.70;2.90;;;;;;;16.85;46.45;101736.23;106549;1259;70118;-68
2022/04/30 11:42:13;;;;;;;5.60;3.00;;;;;;;16.19;48.24;101735.25;106664;1259;69767;-74
2022/04/30 11:44:44;;;;;;;5.70;3.10;;;;;;;16.14;48.13;101737.20;106684;1258;74136;-76
2022/04/30 11:47:13;;;;;;;10.30;3.70;;;;;;;16.04;48.89;101736.63;106460;1259;61694;-75
2022/04/30 11:49:43;;;;;;;5.00;3.40;;;;;;;15.54;51.21;101739.27;106581;1259;59758;-74
2022/04/30 11:52:14;;;;;;;4.80;3.50;;;;;;;15.63;51.09;101727.98;106379;1259;72520;-77
2022/04/30 11:54:43;;;;;;;5.60;3.10;;;;;;;15.69;50.33;101729.15;106409;1259;70408;-73
2022/04/30 11:57:15;;;;;;;6.30;3.30;;;;;;;15.57;49.90;101724.98;106725;1259;70533;-72
2022/04/30 11:59:44;;;;;;;4.40;2.80;;;;;;;15.50;49.54;101724.77;106672;1259;74713;-72
2022/04/30 12:02:15;;;;;;;4.30;2.90;;;;;;;15.64;49.06;101722.00;106596;1259;59543;-74
2022/04/30 12:04:44;;;;;;;5.10;3.30;;;;;;;15.66;48.87;101723.62;106447;1259;59779;-75